sensor_id;sensor_type;location;lat;lon;timestamp;temperature;humidity
15455;DHT22;21057;51.024;7.540;2023-01-15T00:01:22;7.80;99.90
15455;DHT22;21057;51.024;7.540;2023-01-15T00:03:49;7.80;99.90
15455;DHT22;21057;51.024;7.540;2023-01-15T00:06:16;7.80;99.90
15455;DHT22;21057;51.024;7.540;2023-01-15T00:08:45;7.80;99.90
15455;DHT22;21057;51.024;7.540;2023-01-15T00:11:12;7.90;99.90
15455;DHT22;21057;51.024;7.540;2023-01-15T00:13:40;7.90;99.90
15455;DHT22;21057;51.024;7.540;2023-01-15T00:16:09;7.90;99.90
15455;DHT22;21057;51.024;7.540;2023-01-15T00:18:36;7.80;99.90
15455;DHT22;21057;51.024;7.540;2023-01-15T00:21:05;7.50;99.90
15455;DHT22;21057;51.024;7.540;2023-01-15T00:23:33;7.50;99.90
15455;DHT22;21057;51.024;7.540;2023-01-15T00:26:20;7.40;99.90
15455;DHT22;21057;51.024;7.540;2023-01-15T00:29:05;7.10;99.90
15455;DHT22;21057;51.024;7.540;2023-01-15T00:31:34;7.30;99.90
15455;DHT22;21057;51.024;7.540;2023-01-15T00:34:01;7.40;99.90
15455;DHT22;21057;51.024;7.540;2023-01-15T00:36:29;7.50;99.90
15455;DHT22;21057;51.024;7.540;2023-01-15T00:38:57;7.40;99.90
15455;DHT22;21057;51.024;7.540;2023-01-15T00:41:25;7.50;99.90
15455;DHT22;21057;51.024;7.540;2023-01-15T00:43:52;7.60;99.90
15455;DHT22;21057;51.024;7.540;2023-01-15T00:46:19;7.60;99.90
15455;DHT22;21057;51.024;7.540;2023-01-15T00:48:45;7.30;99.90
15455;DHT22;21057;51.024;7.540;2023-01-15T00:51:12;7.00;99.90
15455;DHT22;21057;51.024;7.540;2023-01-15T00:53:39;7.00;99.90
15455;DHT22;21057;51.024;7.540;2023-01-15T00:56:06;6.80;99.90
15455;DHT22;21057;51.024;7.540;2023-01-15T00:58:34;6.90;99.90
15455;DHT22;21057;51.024;7.540;2023-01-15T01:01:01;6.80;99.90
15455;DHT22;21057;51.024;7.540;2023-01-15T01:03:28;6.70;99.90
15455;DHT22;21057;51.024;7.540;2023-01-15T01:05:59;6.90;99.90
15455;DHT22;21057;51.024;7.540;2023-01-15T01:08:26;6.80;99.90
15455;DHT22;21057;51.024;7.540;2023-01-15T01:11:00;6.60;99.90
15455;DHT22;21057;51.024;7.540;2023-01-15T01:13:27;6.60;99.90
15455;DHT22;21057;51.024;7.540;2023-01-15T01:15:55;6.60;99.90
15455;DHT22;21057;51.024;7.540;2023-01-15T01:18:22;6.40;99.90
15455;DHT22;21057;51.024;7.540;2023-01-15T01:20:49;6.40;99.90
15455;DHT22;21057;51.024;7.540;2023-01-15T01:23:16;6.20;99.90
15455;DHT22;21057;51.024;7.540;2023-01-15T01:25:43;6.10;99.90
15455;DHT22;21057;51.024;7.540;2023-01-15T01:28:09;6.00;99.90
15455;DHT22;21057;51.024;7.540;2023-01-15T01:30:37;5.80;99.90
15455;DHT22;21057;51.024;7.540;2023-01-15T01:33:05;5.80;99.90
15455;DHT22;21057;51.024;7.540;2023-01-15T01:35:32;5.80;99.90
15455;DHT22;21057;51.024;7.540;2023-01-15T01:37:59;6.00;99.90
15455;DHT22;21057;51.024;7.540;2023-01-15T01:40:26;6.20;99.90
15455;DHT22;21057;51.024;7.540;2023-01-15T01:42:53;6.20;99.90
15455;DHT22;21057;51.024;7.540;2023-01-15T01:45:23;6.50;99.90
15455;DHT22;21057;51.024;7.540;2023-01-15T01:47:52;6.80;99.90
15455;DHT22;21057;51.024;7.540;2023-01-15T01:50:24;7.00;99.90
15455;DHT22;21057;51.024;7.540;2023-01-15T01:52:54;7.10;99.90
15455;DHT22;21057;51.024;7.540;2023-01-15T01:55:23;7.30;99.90
15455;DHT22;21057;51.024;7.540;2023-01-15T01:57:52;7.30;99.90
15455;DHT22;21057;51.024;7.540;2023-01-15T02:00:21;7.30;99.90
15455;DHT22;21057;51.024;7.540;2023-01-15T02:02:49;7.40;99.90
15455;DHT22;21057;51.024;7.540;2023-01-15T02:05:26;7.50;99.90
15455;DHT22;21057;51.024;7.540;2023-01-15T02:07:54;7.60;99.90
15455;DHT22;21057;51.024;7.540;2023-01-15T02:10:21;7.50;99.90
15455;DHT22;21057;51.024;7.540;2023-01-15T02:12:54;7.50;99.90
15455;DHT22;21057;51.024;7.540;2023-01-15T02:15:27;7.60;99.90
15455;DHT22;21057;51.024;7.540;2023-01-15T02:18:00;7.50;99.90
15455;DHT22;21057;51.024;7.540;2023-01-15T02:20:32;7.20;99.90
15455;DHT22;21057;51.024;7.540;2023-01-15T02:23:17;7.20;99.90
15455;DHT22;21057;51.024;7.540;2023-01-15T02:26:12;7.20;99.90
15455;DHT22;21057;51.024;7.540;2023-01-15T02:28:49;7.10;99.90
15455;DHT22;21057;51.024;7.540;2023-01-15T02:31:26;6.90;99.90
15455;DHT22;21057;51.024;7.540;2023-01-15T02:33:57;6.90;99.90
15455;DHT22;21057;51.024;7.540;2023-01-15T02:36:29;7.00;99.90
15455;DHT22;21057;51.024;7.540;2023-01-15T02:38:58;7.20;99.90
15455;DHT22;21057;51.024;7.540;2023-01-15T02:41:30;7.10;99.90
15455;DHT22;21057;51.024;7.540;2023-01-15T02:44:01;7.10;99.90
15455;DHT22;21057;51.024;7.540;2023-01-15T02:46:32;7.10;99.90
15455;DHT22;21057;51.024;7.540;2023-01-15T02:48:59;7.10;99.90
15455;DHT22;21057;51.024;7.540;2023-01-15T02:51:32;7.20;99.90
15455;DHT22;21057;51.024;7.540;2023-01-15T02:54:00;7.30;99.90
15455;DHT22;21057;51.024;7.540;2023-01-15T02:56:32;7.30;99.90
15455;DHT22;21057;51.024;7.540;2023-01-15T02:59:04;7.30;99.90
15455;DHT22;21057;51.024;7.540;2023-01-15T03:01:35;7.30;99.90
15455;DHT22;21057;51.024;7.540;2023-01-15T03:04:09;7.20;99.90
15455;DHT22;21057;51.024;7.540;2023-01-15T03:06:40;7.30;99.90
15455;DHT22;21057;51.024;7.540;2023-01-15T03:09:11;7.30;99.90
15455;DHT22;21057;51.024;7.540;2023-01-15T03:11:44;7.20;99.90
15455;DHT22;21057;51.024;7.540;2023-01-15T03:14:18;7.20;99.90
15455;DHT22;21057;51.024;7.540;2023-01-15T03:16:49;7.20;99.90
15455;DHT22;21057;51.024;7.540;2023-01-15T03:19:23;7.20;99.90
15455;DHT22;21057;51.024;7.540;2023-01-15T03:21:54;7.30;99.90
15455;DHT22;21057;51.024;7.540;2023-01-15T03:24:26;7.30;99.90
15455;DHT22;21057;51.024;7.540;2023-01-15T03:26:54;7.20;99.90
15455;DHT22;21057;51.024;7.540;2023-01-15T03:29:24;6.90;99.90
15455;DHT22;21057;51.024;7.540;2023-01-15T03:31:53;7.00;99.90
15455;DHT22;21057;51.024;7.540;2023-01-15T03:34:21;6.90;99.90
15455;DHT22;21057;51.024;7.540;2023-01-15T03:36:50;6.80;99.90
15455;DHT22;21057;51.024;7.540;2023-01-15T03:39:17;6.80;99.90
15455;DHT22;21057;51.024;7.540;2023-01-15T03:41:49;6.90;99.90
15455;DHT22;21057;51.024;7.540;2023-01-15T03:44:26;6.90;99.90
15455;DHT22;21057;51.024;7.540;2023-01-15T03:47:06;6.90;99.90
15455;DHT22;21057;51.024;7.540;2023-01-15T03:49:46;6.80;99.90
15455;DHT22;21057;51.024;7.540;2023-01-15T03:52:20;6.80;99.90
15455;DHT22;21057;51.024;7.540;2023-01-15T03:54:51;6.90;99.90
15455;DHT22;21057;51.024;7.540;2023-01-15T03:57:26;6.90;99.90
15455;DHT22;21057;51.024;7.540;2023-01-15T03:59:58;7.00;99.90
15455;DHT22;21057;51.024;7.540;2023-01-15T04:02:29;7.20;99.90
15455;DHT22;21057;51.024;7.540;2023-01-15T04:04:57;7.20;99.90
15455;DHT22;21057;51.024;7.540;2023-01-15T04:07:26;7.20;99.90
15455;DHT22;21057;51.024;7.540;2023-01-15T04:09:53;7.00;99.90
15455;DHT22;21057;51.024;7.540;2023-01-15T04:12:20;6.90;99.90
15455;DHT22;21057;51.024;7.540;2023-01-15T04:14:46;7.00;99.90
15455;DHT22;21057;51.024;7.540;2023-01-15T04:17:15;7.00;99.90
15455;DHT22;21057;51.024;7.540;2023-01-15T04:19:42;7.00;99.90
15455;DHT22;21057;51.024;7.540;2023-01-15T04:22:10;7.00;99.90
15455;DHT22;21057;51.024;7.540;2023-01-15T04:24:37;7.00;99.90
15455;DHT22;21057;51.024;7.540;2023-01-15T04:27:03;6.90;99.90
15455;DHT22;21057;51.024;7.540;2023-01-15T04:29:30;7.00;99.90
15455;DHT22;21057;51.024;7.540;2023-01-15T04:31:57;6.90;99.90
15455;DHT22;21057;51.024;7.540;2023-01-15T04:34:28;6.90;99.90
15455;DHT22;21057;51.024;7.540;2023-01-15T04:36:56;6.90;99.90
15455;DHT22;21057;51.024;7.540;2023-01-15T04:39:26;6.80;99.90
15455;DHT22;21057;51.024;7.540;2023-01-15T04:41:53;6.70;99.90
15455;DHT22;21057;51.024;7.540;2023-01-15T04:44:37;6.80;99.90
15455;DHT22;21057;51.024;7.540;2023-01-15T04:47:05;6.70;99.90
15455;DHT22;21057;51.024;7.540;2023-01-15T04:49:33;6.70;99.90
15455;DHT22;21057;51.024;7.540;2023-01-15T04:52:00;6.70;99.90
15455;DHT22;21057;51.024;7.540;2023-01-15T04:54:27;6.70;99.90
15455;DHT22;21057;51.024;7.540;2023-01-15T04:56:54;6.80;99.90
15455;DHT22;21057;51.024;7.540;2023-01-15T04:59:23;6.80;99.90
15455;DHT22;21057;51.024;7.540;2023-01-15T05:01:51;6.90;99.90
15455;DHT22;21057;51.024;7.540;2023-01-15T05:04:18;6.80;99.90
15455;DHT22;21057;51.024;7.540;2023-01-15T05:06:46;6.70;99.90
15455;DHT22;21057;51.024;7.540;2023-01-15T05:09:13;6.80;99.90
15455;DHT22;21057;51.024;7.540;2023-01-15T05:11:40;6.60;99.90
15455;DHT22;21057;51.024;7.540;2023-01-15T05:14:07;6.70;99.90
15455;DHT22;21057;51.024;7.540;2023-01-15T05:16:34;6.70;99.90
15455;DHT22;21057;51.024;7.540;2023-01-15T05:19:03;6.80;99.90
15455;DHT22;21057;51.024;7.540;2023-01-15T05:21:33;6.80;99.90
15455;DHT22;21057;51.024;7.540;2023-01-15T05:24:04;6.80;99.90
15455;DHT22;21057;51.024;7.540;2023-01-15T05:26:32;6.90;99.90
15455;DHT22;21057;51.024;7.540;2023-01-15T05:29:05;6.90;99.90
15455;DHT22;21057;51.024;7.540;2023-01-15T05:31:32;6.90;99.90
15455;DHT22;21057;51.024;7.540;2023-01-15T05:34:00;6.80;99.90
15455;DHT22;21057;51.024;7.540;2023-01-15T05:36:30;6.80;99.90
15455;DHT22;21057;51.024;7.540;2023-01-15T05:38:57;6.80;99.90
15455;DHT22;21057;51.024;7.540;2023-01-15T05:41:28;6.90;99.90
15455;DHT22;21057;51.024;7.540;2023-01-15T05:44:13;6.80;99.90
15455;DHT22;21057;51.024;7.540;2023-01-15T05:46:41;6.70;99.90
15455;DHT22;21057;51.024;7.540;2023-01-15T05:49:10;6.60;99.90
15455;DHT22;21057;51.024;7.540;2023-01-15T05:51:38;6.60;99.90
15455;DHT22;21057;51.024;7.540;2023-01-15T05:54:07;6.70;99.90
15455;DHT22;21057;51.024;7.540;2023-01-15T05:56:38;6.70;99.90
15455;DHT22;21057;51.024;7.540;2023-01-15T05:59:06;6.80;99.90
15455;DHT22;21057;51.024;7.540;2023-01-15T06:01:33;6.90;99.90
15455;DHT22;21057;51.024;7.540;2023-01-15T06:04:01;6.90;99.90
15455;DHT22;21057;51.024;7.540;2023-01-15T06:06:28;6.80;99.90
15455;DHT22;21057;51.024;7.540;2023-01-15T06:09:02;6.90;99.90
15455;DHT22;21057;51.024;7.540;2023-01-15T06:11:29;6.90;99.90
15455;DHT22;21057;51.024;7.540;2023-01-15T06:14:04;6.70;99.90
15455;DHT22;21057;51.024;7.540;2023-01-15T06:16:31;6.50;99.90
15455;DHT22;21057;51.024;7.540;2023-01-15T06:18:59;6.40;99.90
15455;DHT22;21057;51.024;7.540;2023-01-15T06:21:26;6.50;99.90
15455;DHT22;21057;51.024;7.540;2023-01-15T06:23:55;6.30;99.90
15455;DHT22;21057;51.024;7.540;2023-01-15T06:26:22;6.40;99.90
15455;DHT22;21057;51.024;7.540;2023-01-15T06:28:49;6.30;99.90
15455;DHT22;21057;51.024;7.540;2023-01-15T06:31:19;6.20;99.90
15455;DHT22;21057;51.024;7.540;2023-01-15T06:33:50;6.30;99.90
15455;DHT22;21057;51.024;7.540;2023-01-15T06:36:18;6.30;99.90
15455;DHT22;21057;51.024;7.540;2023-01-15T06:38:47;6.20;99.90
15455;DHT22;21057;51.024;7.540;2023-01-15T06:41:17;6.20;99.90
15455;DHT22;21057;51.024;7.540;2023-01-15T06:43:58;6.10;99.90
15455;DHT22;21057;51.024;7.540;2023-01-15T06:46:45;6.20;99.90
15455;DHT22;21057;51.024;7.540;2023-01-15T06:49:29;6.40;99.90
15455;DHT22;21057;51.024;7.540;2023-01-15T06:51:57;6.30;99.90
15455;DHT22;21057;51.024;7.540;2023-01-15T06:54:24;6.30;99.90
15455;DHT22;21057;51.024;7.540;2023-01-15T06:56:50;6.30;99.90
15455;DHT22;21057;51.024;7.540;2023-01-15T06:59:17;6.20;99.90
15455;DHT22;21057;51.024;7.540;2023-01-15T07:01:46;6.10;99.90
15455;DHT22;21057;51.024;7.540;2023-01-15T07:04:13;6.10;99.90
15455;DHT22;21057;51.024;7.540;2023-01-15T07:06:40;6.10;99.90
15455;DHT22;21057;51.024;7.540;2023-01-15T07:09:07;6.00;99.90
15455;DHT22;21057;51.024;7.540;2023-01-15T07:11:34;6.00;99.90
15455;DHT22;21057;51.024;7.540;2023-01-15T07:14:13;6.10;99.90
15455;DHT22;21057;51.024;7.540;2023-01-15T07:16:40;6.10;99.90
15455;DHT22;21057;51.024;7.540;2023-01-15T07:19:09;6.00;99.90
15455;DHT22;21057;51.024;7.540;2023-01-15T07:21:35;6.00;99.90
15455;DHT22;21057;51.024;7.540;2023-01-15T07:24:03;6.00;99.90
15455;DHT22;21057;51.024;7.540;2023-01-15T07:26:30;6.10;99.90
15455;DHT22;21057;51.024;7.540;2023-01-15T07:28:59;6.30;99.90
15455;DHT22;21057;51.024;7.540;2023-01-15T07:31:26;6.20;99.90
15455;DHT22;21057;51.024;7.540;2023-01-15T07:33:54;6.10;99.90
15455;DHT22;21057;51.024;7.540;2023-01-15T07:36:23;6.10;99.90
15455;DHT22;21057;51.024;7.540;2023-01-15T07:38:50;6.10;99.90
15455;DHT22;21057;51.024;7.540;2023-01-15T07:41:17;6.10;99.90
15455;DHT22;21057;51.024;7.540;2023-01-15T07:44:02;6.10;99.90
15455;DHT22;21057;51.024;7.540;2023-01-15T07:47:01;6.00;99.90
15455;DHT22;21057;51.024;7.540;2023-01-15T07:49:46;6.10;99.90
15455;DHT22;21057;51.024;7.540;2023-01-15T07:52:16;5.90;99.90
15455;DHT22;21057;51.024;7.540;2023-01-15T07:54:43;5.90;99.90
15455;DHT22;21057;51.024;7.540;2023-01-15T07:57:10;5.70;99.90
15455;DHT22;21057;51.024;7.540;2023-01-15T07:59:38;5.80;99.90
15455;DHT22;21057;51.024;7.540;2023-01-15T08:02:05;6.00;99.90
15455;DHT22;21057;51.024;7.540;2023-01-15T08:04:32;6.20;99.90
15455;DHT22;21057;51.024;7.540;2023-01-15T08:06:59;6.20;99.90
15455;DHT22;21057;51.024;7.540;2023-01-15T08:09:28;6.30;99.90
15455;DHT22;21057;51.024;7.540;2023-01-15T08:11:57;6.40;99.90
15455;DHT22;21057;51.024;7.540;2023-01-15T08:14:42;6.40;99.90
15455;DHT22;21057;51.024;7.540;2023-01-15T08:17:27;6.40;99.90
15455;DHT22;21057;51.024;7.540;2023-01-15T08:19:54;6.50;99.90
15455;DHT22;21057;51.024;7.540;2023-01-15T08:22:21;6.50;99.90
15455;DHT22;21057;51.024;7.540;2023-01-15T08:24:49;6.50;99.90
15455;DHT22;21057;51.024;7.540;2023-01-15T08:27:16;6.40;99.90
15455;DHT22;21057;51.024;7.540;2023-01-15T08:29:44;6.20;99.90
15455;DHT22;21057;51.024;7.540;2023-01-15T08:32:11;6.00;99.90
15455;DHT22;21057;51.024;7.540;2023-01-15T08:34:38;6.00;99.90
15455;DHT22;21057;51.024;7.540;2023-01-15T08:37:05;6.20;99.90
15455;DHT22;21057;51.024;7.540;2023-01-15T08:39:32;6.40;99.90
15455;DHT22;21057;51.024;7.540;2023-01-15T08:42:01;6.40;99.90
15455;DHT22;21057;51.024;7.540;2023-01-15T08:44:28;6.40;99.90
15455;DHT22;21057;51.024;7.540;2023-01-15T08:46:55;6.20;99.90
15455;DHT22;21057;51.024;7.540;2023-01-15T08:49:24;6.20;99.90
15455;DHT22;21057;51.024;7.540;2023-01-15T08:51:50;6.20;99.90
15455;DHT22;21057;51.024;7.540;2023-01-15T08:54:19;6.00;99.90
15455;DHT22;21057;51.024;7.540;2023-01-15T08:56:46;5.70;99.90
15455;DHT22;21057;51.024;7.540;2023-01-15T08:59:16;5.50;99.90
15455;DHT22;21057;51.024;7.540;2023-01-15T09:01:43;5.60;99.90
15455;DHT22;21057;51.024;7.540;2023-01-15T09:04:12;5.30;99.90
15455;DHT22;21057;51.024;7.540;2023-01-15T09:06:39;5.20;99.90
15455;DHT22;21057;51.024;7.540;2023-01-15T09:09:07;5.40;99.90
15455;DHT22;21057;51.024;7.540;2023-01-15T09:11:33;5.20;99.90
15455;DHT22;21057;51.024;7.540;2023-01-15T09:14:01;4.80;99.90
15455;DHT22;21057;51.024;7.540;2023-01-15T09:16:29;4.90;99.90
15455;DHT22;21057;51.024;7.540;2023-01-15T09:18:57;4.90;99.90
15455;DHT22;21057;51.024;7.540;2023-01-15T09:21:24;4.80;99.90
15455;DHT22;21057;51.024;7.540;2023-01-15T09:23:51;4.90;99.90
15455;DHT22;21057;51.024;7.540;2023-01-15T09:26:28;5.10;99.90
15455;DHT22;21057;51.024;7.540;2023-01-15T09:28:56;5.30;99.90
15455;DHT22;21057;51.024;7.540;2023-01-15T09:31:24;5.50;99.90
15455;DHT22;21057;51.024;7.540;2023-01-15T09:33:52;5.40;99.90
15455;DHT22;21057;51.024;7.540;2023-01-15T09:36:23;5.30;99.90
15455;DHT22;21057;51.024;7.540;2023-01-15T09:38:50;5.40;99.90
15455;DHT22;21057;51.024;7.540;2023-01-15T09:41:18;5.50;99.90
15455;DHT22;21057;51.024;7.540;2023-01-15T09:44:14;5.60;99.90
15455;DHT22;21057;51.024;7.540;2023-01-15T09:46:52;5.60;99.90
15455;DHT22;21057;51.024;7.540;2023-01-15T09:49:30;5.70;99.90
15455;DHT22;21057;51.024;7.540;2023-01-15T09:52:05;6.00;99.90
15455;DHT22;21057;51.024;7.540;2023-01-15T09:54:46;6.10;99.90
15455;DHT22;21057;51.024;7.540;2023-01-15T09:57:17;6.10;99.90
15455;DHT22;21057;51.024;7.540;2023-01-15T09:59:46;6.20;99.90
15455;DHT22;21057;51.024;7.540;2023-01-15T10:02:21;6.10;99.90
15455;DHT22;21057;51.024;7.540;2023-01-15T10:04:53;6.20;99.90
15455;DHT22;21057;51.024;7.540;2023-01-15T10:07:27;6.10;99.90
15455;DHT22;21057;51.024;7.540;2023-01-15T10:10:00;6.20;99.90
15455;DHT22;21057;51.024;7.540;2023-01-15T10:12:29;6.20;99.90
15455;DHT22;21057;51.024;7.540;2023-01-15T10:15:14;6.30;99.90
15455;DHT22;21057;51.024;7.540;2023-01-15T10:17:43;6.40;99.90
15455;DHT22;21057;51.024;7.540;2023-01-15T10:20:27;6.60;99.90
15455;DHT22;21057;51.024;7.540;2023-01-15T10:23:15;6.60;99.90
15455;DHT22;21057;51.024;7.540;2023-01-15T10:25:49;6.70;99.90
15455;DHT22;21057;51.024;7.540;2023-01-15T10:28:19;6.50;99.90
15455;DHT22;21057;51.024;7.540;2023-01-15T10:30:51;6.60;99.90
15455;DHT22;21057;51.024;7.540;2023-01-15T10:33:38;6.50;99.90
15455;DHT22;21057;51.024;7.540;2023-01-15T10:36:14;6.40;99.90
15455;DHT22;21057;51.024;7.540;2023-01-15T10:38:48;6.40;99.90
15455;DHT22;21057;51.024;7.540;2023-01-15T10:41:30;6.50;99.90
15455;DHT22;21057;51.024;7.540;2023-01-15T10:44:07;6.80;99.90
15455;DHT22;21057;51.024;7.540;2023-01-15T10:46:39;6.80;99.90
15455;DHT22;21057;51.024;7.540;2023-01-15T10:49:11;7.00;99.90
15455;DHT22;21057;51.024;7.540;2023-01-15T10:51:43;7.00;99.90
15455;DHT22;21057;51.024;7.540;2023-01-15T10:54:17;7.10;99.90
15455;DHT22;21057;51.024;7.540;2023-01-15T10:56:52;7.20;99.90
15455;DHT22;21057;51.024;7.540;2023-01-15T10:59:33;7.20;99.90
15455;DHT22;21057;51.024;7.540;2023-01-15T11:02:02;7.20;99.90
15455;DHT22;21057;51.024;7.540;2023-01-15T11:04:37;7.10;99.90
15455;DHT22;21057;51.024;7.540;2023-01-15T11:07:08;7.00;99.90
15455;DHT22;21057;51.024;7.540;2023-01-15T11:09:37;7.00;99.90
15455;DHT22;21057;51.024;7.540;2023-01-15T11:12:18;7.10;99.90
15455;DHT22;21057;51.024;7.540;2023-01-15T11:15:17;7.10;99.90
15455;DHT22;21057;51.024;7.540;2023-01-15T11:18:11;7.10;99.90
15455;DHT22;21057;51.024;7.540;2023-01-15T11:20:58;7.10;99.90
15455;DHT22;21057;51.024;7.540;2023-01-15T11:23:34;6.80;99.90
15455;DHT22;21057;51.024;7.540;2023-01-15T11:26:02;6.60;99.90
15455;DHT22;21057;51.024;7.540;2023-01-15T11:28:31;6.60;99.90
15455;DHT22;21057;51.024;7.540;2023-01-15T11:31:00;6.90;99.90
15455;DHT22;21057;51.024;7.540;2023-01-15T11:33:28;7.10;99.90
15455;DHT22;21057;51.024;7.540;2023-01-15T11:35:59;6.90;99.90
15455;DHT22;21057;51.024;7.540;2023-01-15T11:38:28;6.70;99.90
15455;DHT22;21057;51.024;7.540;2023-01-15T11:40:58;6.80;99.90
15455;DHT22;21057;51.024;7.540;2023-01-15T11:43:27;6.80;99.90
15455;DHT22;21057;51.024;7.540;2023-01-15T11:46:24;6.60;99.90
15455;DHT22;21057;51.024;7.540;2023-01-15T11:49:09;6.60;99.90
15455;DHT22;21057;51.024;7.540;2023-01-15T11:51:55;6.50;99.90
15455;DHT22;21057;51.024;7.540;2023-01-15T11:54:26;6.50;99.90
15455;DHT22;21057;51.024;7.540;2023-01-15T11:56:53;6.50;99.90
15455;DHT22;21057;51.024;7.540;2023-01-15T11:59:21;6.70;99.90
15455;DHT22;21057;51.024;7.540;2023-01-15T12:01:50;6.80;99.90
15455;DHT22;21057;51.024;7.540;2023-01-15T12:04:33;6.90;99.90
15455;DHT22;21057;51.024;7.540;2023-01-15T12:07:03;6.60;99.90
15455;DHT22;21057;51.024;7.540;2023-01-15T12:09:45;6.50;99.90
15455;DHT22;21057;51.024;7.540;2023-01-15T12:12:21;6.80;99.90
15455;DHT22;21057;51.024;7.540;2023-01-15T12:15:04;6.90;99.90
15455;DHT22;21057;51.024;7.540;2023-01-15T12:17:48;6.80;99.90
15455;DHT22;21057;51.024;7.540;2023-01-15T12:20:23;6.90;99.90
15455;DHT22;21057;51.024;7.540;2023-01-15T12:23:09;6.90;99.90
15455;DHT22;21057;51.024;7.540;2023-01-15T12:25:50;6.90;99.90
15455;DHT22;21057;51.024;7.540;2023-01-15T12:28:22;6.90;99.90
15455;DHT22;21057;51.024;7.540;2023-01-15T12:30:57;7.00;99.90
15455;DHT22;21057;51.024;7.540;2023-01-15T12:33:36;7.10;99.90
15455;DHT22;21057;51.024;7.540;2023-01-15T12:36:09;7.10;99.90
15455;DHT22;21057;51.024;7.540;2023-01-15T12:38:46;7.20;99.90
15455;DHT22;21057;51.024;7.540;2023-01-15T12:41:22;7.00;99.90
15455;DHT22;21057;51.024;7.540;2023-01-15T12:43:58;7.00;99.90
15455;DHT22;21057;51.024;7.540;2023-01-15T12:46:43;6.80;99.90
15455;DHT22;21057;51.024;7.540;2023-01-15T12:49:22;7.00;99.90
15455;DHT22;21057;51.024;7.540;2023-01-15T12:51:56;6.90;99.90
15455;DHT22;21057;51.024;7.540;2023-01-15T12:54:29;6.80;99.90
15455;DHT22;21057;51.024;7.540;2023-01-15T12:57:05;6.90;99.90
15455;DHT22;21057;51.024;7.540;2023-01-15T12:59:47;7.00;99.90
15455;DHT22;21057;51.024;7.540;2023-01-15T13:02:21;6.90;99.90
15455;DHT22;21057;51.024;7.540;2023-01-15T13:05:12;7.00;99.90
15455;DHT22;21057;51.024;7.540;2023-01-15T13:07:43;7.00;99.90
15455;DHT22;21057;51.024;7.540;2023-01-15T13:10:19;6.70;99.90
15455;DHT22;21057;51.024;7.540;2023-01-15T13:12:49;6.60;99.90
15455;DHT22;21057;51.024;7.540;2023-01-15T13:15:19;6.70;99.90
15455;DHT22;21057;51.024;7.540;2023-01-15T13:17:55;6.60;99.90
15455;DHT22;21057;51.024;7.540;2023-01-15T13:20:32;6.60;99.90
15455;DHT22;21057;51.024;7.540;2023-01-15T13:23:08;6.70;99.90
15455;DHT22;21057;51.024;7.540;2023-01-15T13:25:50;6.80;99.90
15455;DHT22;21057;51.024;7.540;2023-01-15T13:28:30;7.00;99.90
15455;DHT22;21057;51.024;7.540;2023-01-15T13:31:06;7.00;99.90
15455;DHT22;21057;51.024;7.540;2023-01-15T13:33:39;7.00;99.90
15455;DHT22;21057;51.024;7.540;2023-01-15T13:36:11;6.70;99.90
15455;DHT22;21057;51.024;7.540;2023-01-15T13:38:42;6.60;99.90
15455;DHT22;21057;51.024;7.540;2023-01-15T13:41:18;6.80;99.90
15455;DHT22;21057;51.024;7.540;2023-01-15T13:44:15;6.70;99.90
15455;DHT22;21057;51.024;7.540;2023-01-15T13:46:45;6.80;99.90
15455;DHT22;21057;51.024;7.540;2023-01-15T13:49:18;6.90;99.90
15455;DHT22;21057;51.024;7.540;2023-01-15T13:51:47;6.90;99.90
15455;DHT22;21057;51.024;7.540;2023-01-15T13:54:17;6.90;99.90
15455;DHT22;21057;51.024;7.540;2023-01-15T13:56:46;7.10;99.90
15455;DHT22;21057;51.024;7.540;2023-01-15T13:59:37;6.90;99.90
15455;DHT22;21057;51.024;7.540;2023-01-15T14:02:22;7.10;99.90
15455;DHT22;21057;51.024;7.540;2023-01-15T14:04:52;7.00;99.90
15455;DHT22;21057;51.024;7.540;2023-01-15T14:07:20;6.90;99.90
15455;DHT22;21057;51.024;7.540;2023-01-15T14:10:06;7.00;99.90
15455;DHT22;21057;51.024;7.540;2023-01-15T14:12:41;7.10;99.90
15455;DHT22;21057;51.024;7.540;2023-01-15T14:15:24;7.10;99.90
15455;DHT22;21057;51.024;7.540;2023-01-15T14:18:19;7.20;99.90
15455;DHT22;21057;51.024;7.540;2023-01-15T14:20:56;7.10;99.90
15455;DHT22;21057;51.024;7.540;2023-01-15T14:23:38;7.00;99.90
15455;DHT22;21057;51.024;7.540;2023-01-15T14:26:15;6.90;99.90
15455;DHT22;21057;51.024;7.540;2023-01-15T14:29:04;7.00;99.90
15455;DHT22;21057;51.024;7.540;2023-01-15T14:31:49;6.90;99.90
15455;DHT22;21057;51.024;7.540;2023-01-15T14:34:24;6.90;99.90
15455;DHT22;21057;51.024;7.540;2023-01-15T14:36:55;6.70;99.90
15455;DHT22;21057;51.024;7.540;2023-01-15T14:39:30;6.70;99.90
15455;DHT22;21057;51.024;7.540;2023-01-15T14:42:05;6.80;99.90
15455;DHT22;21057;51.024;7.540;2023-01-15T14:44:58;6.80;99.90
15455;DHT22;21057;51.024;7.540;2023-01-15T14:47:30;6.70;99.90
15455;DHT22;21057;51.024;7.540;2023-01-15T14:50:02;6.70;99.90
15455;DHT22;21057;51.024;7.540;2023-01-15T14:52:30;6.70;99.90
15455;DHT22;21057;51.024;7.540;2023-01-15T14:54:57;6.70;99.90
15455;DHT22;21057;51.024;7.540;2023-01-15T14:57:25;6.70;99.90
15455;DHT22;21057;51.024;7.540;2023-01-15T14:59:56;6.70;99.90
15455;DHT22;21057;51.024;7.540;2023-01-15T15:02:31;6.80;99.90
15455;DHT22;21057;51.024;7.540;2023-01-15T15:05:00;6.90;99.90
15455;DHT22;21057;51.024;7.540;2023-01-15T15:07:33;6.80;99.90
15455;DHT22;21057;51.024;7.540;2023-01-15T15:10:04;6.60;99.90
15455;DHT22;21057;51.024;7.540;2023-01-15T15:12:36;6.70;99.90
15455;DHT22;21057;51.024;7.540;2023-01-15T15:15:11;6.80;99.90
15455;DHT22;21057;51.024;7.540;2023-01-15T15:17:48;6.90;99.90
15455;DHT22;21057;51.024;7.540;2023-01-15T15:20:29;6.80;99.90
15455;DHT22;21057;51.024;7.540;2023-01-15T15:23:05;6.70;99.90
15455;DHT22;21057;51.024;7.540;2023-01-15T15:25:37;6.90;99.90
15455;DHT22;21057;51.024;7.540;2023-01-15T15:28:07;6.80;99.90
15455;DHT22;21057;51.024;7.540;2023-01-15T15:30:38;6.70;99.90
15455;DHT22;21057;51.024;7.540;2023-01-15T15:33:14;6.60;99.90
15455;DHT22;21057;51.024;7.540;2023-01-15T15:35:45;6.40;99.90
15455;DHT22;21057;51.024;7.540;2023-01-15T15:38:16;6.50;99.90
15455;DHT22;21057;51.024;7.540;2023-01-15T15:40:46;6.40;99.90
15455;DHT22;21057;51.024;7.540;2023-01-15T15:43:18;6.50;99.90
15455;DHT22;21057;51.024;7.540;2023-01-15T15:46:04;6.60;99.90
15455;DHT22;21057;51.024;7.540;2023-01-15T15:48:56;6.80;99.90
15455;DHT22;21057;51.024;7.540;2023-01-15T15:51:27;6.60;99.90
15455;DHT22;21057;51.024;7.540;2023-01-15T15:54:10;6.50;99.90
15455;DHT22;21057;51.024;7.540;2023-01-15T15:56:38;6.60;99.90
15455;DHT22;21057;51.024;7.540;2023-01-15T15:59:15;6.60;99.90
15455;DHT22;21057;51.024;7.540;2023-01-15T16:01:44;6.60;99.90
15455;DHT22;21057;51.024;7.540;2023-01-15T16:04:16;6.60;99.90
15455;DHT22;21057;51.024;7.540;2023-01-15T16:06:46;6.80;99.90
15455;DHT22;21057;51.024;7.540;2023-01-15T16:09:19;6.90;99.90
15455;DHT22;21057;51.024;7.540;2023-01-15T16:11:48;6.90;99.90
15455;DHT22;21057;51.024;7.540;2023-01-15T16:14:16;6.80;99.90
15455;DHT22;21057;51.024;7.540;2023-01-15T16:16:46;6.70;99.90